MET: Información y Pronóstico Aeronáutico

///////////////////////////////////////////////////////////////////////////////////////////////////////////////////////////////////////////////////////////////////////////////////////////////////////////////////////////////////////////////

Member for

4 meses 4 semanas
Enviado por meteorologia el Jue, 23/11/2017 - 11:39
11-12

11 DE DICIEMBRE 2018

INFORMACION METEOROLOGICA AERONAUTICA (METAR) 18:00 UTC

Aeropuerto AEROPARQUE J. NEWBERY

11 - 18:00 METAR SABE 111800Z 36011KT 9000 -RA BKN011 OVC040 21/20 Q1008 TEMPO 5000 TSRA =

Aeropuerto BAHIA BLANCA

11 - 18:00 METAR SAZB 111800Z 25019KT 9999 FEW045 31/07 Q1008 =

Aeropuerto BARILOCHE

11 - 18:00 METAR SAZS 111800Z 29021KT 9999 SCT030 BKN040 14/04 Q1016 =

Aeropuerto CATAMARCA

11 - 18:00 METAR SANC 111800Z 23010KT 9999 FEW050 40/16 Q1003 =

Aeropuerto CHAPELCO

11 - 18:00 METAR SAZY 111800Z 29020KT 9999 BKN040 16/07 Q1015 =

Aeropuerto COMODORO RIVADAVIA

11 - 18:00 METAR SAVC 111800Z 29017G27KT 9999 SCT040 25/M02 Q1005 =

Aeropuerto CORDOBA

11 - 18:00 METAR SACO 111800Z 16004KT 9999 FEW035 FEW040 36/22 Q1006 PROB30 5000 TSRA SCT025 SCT030TCU FEW030CB =

Aeropuerto CORRIENTES

11 - 18:00 METAR SARC 111800Z 36017KT 9999 SCT035 38/20 Q1008 =

Aeropuerto EL CALAFATE

11 - 18:00 METAR SAWC 111800Z 27017KT 9999 FEW040 BKN100 15/M06 Q1005 =

Aeropuerto EL PALOMAR

11 - 18:00 METAR SADP 111800Z 35005KT 320V020 9000 -RA BKN012 OVC100 20/19 Q1008 =

Aeropuerto ESQUEL

11 - 18:00 METAR SAVE 111800Z 27017G31KT 9999 BKN040 15/01 Q1013 =

Aeropuerto EZEIZA

11 - 18:00 METAR SAEZ 111700Z 02012KT 9999 SCT020 SCT040 OVC080 22/19 Q1008TEMPO 5000 TSRA FEW045CB =

Aeropuerto FORMOSA

11 - 18:00 METAR SARF 111800Z 36015KT 9999 SCT030 38/21 Q1008 =

Aeropuerto IGUAZU/CATARATAS

11 - 18:00 METAR SARI 111800Z 36012KT 9999 SCT035 36/16 Q1014 =

Aeropuerto JUJUY

11 - 18:00 METAR SASJ 111800Z 05009KT 9999 FEW035 34/21 Q1008 =

Aeropuerto LA RIOJA

11 - 18:00 METAR SANL 111800Z 27006KT CAVOK 38/18 Q1004 =

Aeropuerto MALARGUE

11 - 18:00 METAR SAMM 111800Z 32016G33KT 9999 FEW030 26/M13 Q1017 =

Aeropuerto MAR DEL PLATA

11 - 18:00 METAR SAZM 111800Z 07008KT CAVOK 23/20 Q1009 =

Aeropuerto MENDOZA

11 - 18:00 METAR SAME 111800Z 09009KT CAVOK 31/08 Q1011 =

Aeropuerto MORON

11 - 18:00 METAR SADM 111800Z 32005KT 9999 BKN008 BKN011 OVC100 22/19 Q1008 =

Aeropuerto NEUQUEN

11 - 18:00 METAR SAZN 111800Z 27010KT 9999 SCT035 24/04 Q1013 =

Aeropuerto PARANA

11 - 17:00 METAR SAAP 111700Z 09014KT 8000 -TSRA SCT020 FEW045CB BKN050 25/24 Q1006 =

Aeropuerto POSADAS

11 - 18:00 METAR SARP 111800Z 34010KT 9999 FEW030 38/17 Q1011 =

Aeropuerto PUERTO MADRYN

11 - 18:00 METAR SAVY 111800Z 25016KT 9999 FEW020 25/02 Q1007 =

Aeropuerto RECONQUISTA

11 - 18:00 METAR SATR 111800Z 36014G30KT 9999 FEW030 BKN200 39/23 Q1005 =

Aeropuerto RESISTENCIA

11 - 18:00 METAR SARE 111800Z 36016KT 8000 FEW035 38/19 Q1007 =

Aeropuerto RIO CUARTO

11 - 18:00 METAR SAOC 111800Z 18018KT 9999 SCT025 SCT030 27/18 Q1009 RMK ESTIMATED WIND =

Aeropuerto RIO GALLEGOS

11 - 18:00 METAR SAWG 111800Z 23022G36KT 9999 FEW035 BKN200 15/M05 Q1003 =

Aeropuerto RIO GRANDE

11 - 18:00 METAR SAWE 111800Z 25015KT 9999 SCT020 13/01 Q0999 =

Aeropuerto ROSARIO

11 - 18:00 METAR SAAR 111800Z 09015KT 9999 SCT008 BKN015 BKN048 25/21 Q1006 =

Aeropuerto SALTA

11 - 18:00 METAR SASA 111800Z 32007KT 9999 FEW028 33/17 Q1010 =

Aeropuerto SAN FERNANDO

11 - 18:00 METAR SADF 111800Z 32004KT 9000 -TSRA BKN018 FEW045CB 20/19 Q1009 =

Aeropuerto SAN JUAN

11 - 18:00 METAR SANU 111800Z 16013KT CAVOK 32/07 Q1010 =

Aeropuerto SAN LUIS

11 - 18:00 METAR SAOU 111800Z 11019KT 9999 FEW020 26/18 Q1011 RMK ESIMATED WIND =

Aeropuerto SAN RAFAEL

11 - 18:00 METAR SAMR 111800Z 14004KT CAVOK 30/05 Q1012 =

Aeropuerto SANTA ROSA

11 - 18:00 METAR SAZR 111800Z 16013KT CAVOK 30/09 Q1009 =

Aeropuerto SANTIAGO DEL ESTERO

11 - 18:00 METAR SANE 111800Z 05007KT CAVOK 40/21 Q1002 =

Aeropuerto SAUCE VIEJO

11 - 18:00 METAR SAAV 111800Z 15012KT 7000 R21/0225VP200 +TSRAGR BKN005 FEW055XB OVC070 23/23 Q1004 RMK CB OBS TO VER =

Aeropuerto TANDIL

11 - 18:00 METAR SAZT 111800Z 36013KT 9999 FEW025 27/15 Q1009 =

Aeropuerto TERMAS DE RIO HONDO

11 - 18:00 METAR SANR 111800Z 23010KT 9999 FEW040 36/22 Q1002 =

Aeropuerto TRELEW

11 - 18:00 METAR SAVT 111800Z 25013G24KT 9999 SCT035 SCT200 25/03 Q1007 =

Aeropuerto TUCUMAN

11 - 18:00 METAR SANT 111800Z 23008KT CAVOK 36/24 Q1005 =

Aeropuerto USHUAIA

11 - 18:00 METAR SAWH 111800Z 23014KT 9999 BKN047 BKN080 09/M01 Q1000 =

Aeropuerto VIEDMA

11 - 18:00 METAR SAVV 111800Z 25012KT 9999 SCT030 FEW035CB 26/07 Q1008 =

Aeropuerto VILLA REYNOLDS

11 - 18:00 METAR SAOR 111800Z 14008KT 9999 BKN025 27/18 Q1011 =

 PRONOSTICO DE AERODROMO (TAF) 17:00 UTC

Estación AEROPARQUE J. NEWBERY

11 - 17:00 TAF SABE 111700Z 1118/1218 02015G25KT 9000 -RA BKN040 TX27/1218Z TN20/1209Z TEMPO 1118/1200 5000 TSRA SCT025 FEW040CB OVC050 BECMG 1200/1202 VRB05KT 9999 NSW BKN015 BECMG 1206/1208 18010KT CAVOK =

Estación BAHIA BLANCA

11 - 17:00 TAF SAZB 111700Z 1118/1218 25015G25KT CAVOK TX30/1218Z TN14/1209Z BECMG 1123/1201 10010KT BECMG 1206/1208 25005KT 3000 BR OVC010 BECMG 1211/1213 CAVOK =

Estación BARILOCHE

11 - 17:00 TAF SAZS 111700Z 1118/1218 29025G35KT 9999 SCT040 TX18/1218Z TN07/1209Z PROB30 TEMPO 1118/1200 8000 RADZ BKN015 BKN050 BECMG 1200/1202 31010KT CAVOK =

Estación CATAMARCA

11 - 17:00 TAF SANC 111700Z 1118/1218 18010KT CAVOK TX40/1118Z TN23/1210Z BECMG 1120/1122 SCT040 BECMG 1201/1203 VRB03KT BKN030 TEMPO 1203/1207 9999 VCTS BKN030 FEW035CB =

Estación CHAPELCO

11 - 17:00 TAF SAZY 111700Z 1118/1218 27020G30KT 9999 BKN030 TX21/1218Z TN03/1209Z PROB30 TEMPO 1119/1200 8000 SHRA SCT020 FEW045TCU BKN050 BECMG 1203/1206 27010KT CAVOK =

Estación COMODORO RIVADAVIA

11 - 17:00 TAF SAVC 111700Z 1118/1218 25020KT 9999 SCT030 TX25/1218Z TN12/1210Z BECMG 1116/1118 21010KT BECMG 1201/1203 CAVOK =

Estación CORDOBA

11 - 17:00 TAF SACO 111700Z 1118/1218 18012KT 9999 SCT030 FEW035CB TX32/1218Z TN19/1209Z PROB40 TEMPO 1118/1120 5000 TSRA BKN025 FEW030CB BECMG 1121/1123 BKN030 TEMPO 1203/1207 7000 -TSRA BKN025 FEW040CB BECMG 1210/1212 14005KT CAVOK =

Estación CORRIENTES

11 - 17:00 TAF SARC 111700Z 1118/1218 36015G30KT 9999 SCT035 TX39/1119Z TN24/1209Z BECMG 1123/1124 36010KT PROB40 TEMPO 1209/1213 5000 TSRA SCT020 FEW050CB BKN100 =

Estación EL CALAFATE

11 - 17:00 TAF SAWC 111700Z 1118/1218 27020KT 9999 FEW040 TX16/1118Z TN07/1210Z BECMG 1201/1203 VRB05KT CAVOK BECMG 1207/1209 9999 SCT035 SCT100 =

Estación EL PALOMAR

11 - 17:00 TAF SADP 111700Z 1118/1218 36010G25KT 8000 RA FEW010 SCT035 OVC050 TX31/1218Z TN18/1209Z TEMPO 1119/1200 VRB15KT 3000 TSRA OVC010 FEW045CB BECMG 1203/1205 22005KT 9999 SCT030 BECMG 1206/1208 CAVOK BECMG 1211/1213 16010KT =

Estación ESQUEL

11 - 17:00 TAF SAVE 111700Z 1118/1218 27015KT 9999 RA FEW040 BKN080 TX16/1118Z TN06/1210Z BECMG 1200/1202 29010KT CAVOK =

Estación EZEIZA

11 - 17:00 TAF SAEZ 111700Z 1118/1218 04015G30KT 9999 SCT045 TX30/1218Z TN19/1209Z TEMPO 1119/1200 VRB15KT 3000 TSRA OVC010 FEW045CB BECMG 1203/1205 22005KT 9999 SCT030 BECMG 1206/1208 CAVOK BECMG 1211/1213 16010KT =

Estación FORMOSA

11 - 17:00 TAF SARF 111700Z 1118/1218 02020G30KT 9999 SCT030 TX40/1119Z TN28/1209Z BECMG 1123/1124 36010KT =

Estación IGUAZU/CATARATAS

11 - 17:00 TAF SARI 111700Z 1118/1218 36015KT 9999 SCT035 TX38/1119Z TN23/1209Z BECMG 1123/1124 36005KT =

Estación JUJUY

11 - 17:00 TAF SASJ 111700Z 1118/1218 05005KT SCT030 TX35/1218Z TN22/1209Z BECMG 1120/1122 9999 VCTS SCT030 FEW040CB BECMG 1203/1205 VRB03KT SCT020 BECMG 1214/1216 11010KT BKN020 FEW040TCU TEMPO 1216/1218 5000 TSRA BKN020 FEW035CB =

Estación LA RIOJA

11 - 17:00 TAF SANL 111700Z 1118/1218 18015KT CAVOK TX38/1118Z TN23/1210Z BECMG 1115/1117 18005KT 9999 SCT030 BECMG 1202/1204 SCT030 OVC050 BECMG 1207/1209 5000 TSRA SCT030 FEW035CB OVC050 BECMG 1212/1214 9999 NSW BKN030 BKN050 =

Estación MAR DEL PLATA

11 - 17:00 TAF SAZM 111700Z 1118/1218 07010KT CAVOK TX25/1118Z TN12/1210Z BECMG 1121/1200 23010KT 8000 NSC TEMPO 1209/1212 18015KT CAVOK BECMG 1215/1218 14010KT =

Estación MENDOZA

11 - 17:00 TAF SAME 111700Z 1118/1218 14010KT 9999 FEW040TCU SCT090 TX30/1120Z TN18/1210Z =

Estación NEUQUEN

11 - 17:00 TAF SAZN 111700Z 1118/1218 25015G25KT 9999 SCT040 TX26/1219Z TN11/1209Z BECMG 1119/1121 25020G30KT BECMG 1201/1203 25010KT BECMG 1211/1213 VRB03KT =

Estación PARANA

11 - 17:00 TAF SAAP 111700Z 1118/1218 09015KT 5000 TSRA BKN020 FEW050CB TX30/1118Z TN20/1209Z BECMG 1201/1203 18005KT 8000 RA BKN010 BECMG 1205/1207 9999 BKN015 BECMG 1213/1215 09015KT =

Estación POSADAS

11 - 17:00 TAF SARP 111700Z 1118/1218 36015KT 9999 SCT030 TX38/1119Z TN25/1209Z BECMG 1123/1124 36005KT =

Estación RESISTENCIA

11 - 17:00 TAF SARE 111700Z 1118/1218 36015G30KT 9999 SCT035 TX39/1119Z TN24/1209Z BECMG 1123/1124 36010KT PROB40 TEMPO 1209/1213 5000 TSRA SCT020 FEW050CB BKN100 =

Estación RIO CUARTO

11 - 17:00 TAF SAOC 111700Z 1118/1218 18015G25KT 9999 SCT020 BKN030 TX32/1118Z TN17/1209Z BECMG 1120/1122 16010KT SCT030 BECMG 1201/1203 VRB03KT CAVOK PROB40 1206/1208 7000 NSC =

Estación RIO GALLEGOS

11 - 17:00 TAF SAWG 111700Z 1118/1218 25025G35KT 9999 BKN030 TX17/1120Z TN09/1210Z PROB30 TEMPO 1122/1124 RA FEW035TCU BKN040 BECMG 1201/1203 36010KT BKN030 OVC050 BECMG 1212/1214 03015KT CAVOK =

Estación RIO GRANDE

11 - 17:00 TAF SAWE 111700Z 1118/1218 27020G30KT 9999 FEW030 BKN200 TX15/1118Z TN07/1207Z BECMG 1200/1202 29015G25KT SCT020 BKN100 =

Estación ROSARIO

11 - 17:00 TAF SAAR 111700Z 1118/1218 09020KT 9999 BKN010 BKN100 TX30/1218Z TN18/1208Z PROB30 TEMPO 1119/1200 5000 TSRA SCT025 FEW040CB OVC050 BECMG 1200/1202 VRB10KT 9999 NSW BKN010 BECMG 1206/1208 VRB04KT 0800 FG BKN008 BECMG 1211/1213 09010KT CAVOK =

Estación SALTA

11 - 17:00 TAF SASA 111700Z 1118/1218 04010KT 9999 FEW035 TX32/1218Z TN18/1209Z BECMG 1120/1122 SCT030 FEW040CB TEMPO 1122/1202 5000 TSRA BKN020 FEW040CB BECMG 1203/1205 VRB03KT SCT020 BECMG 1213/1215 BKN020 FEW040CB TEMPO 1215/1218 5000 TSRA BKN020 FEW035CB =

Estación SAN FERNANDO

11 - 17:00 TAF SADF 111700Z 1118/1218 32010KT 7000 -TSRA FEW015 FEW045CB OVC050 TX28/1217Z TN17/1209Z BECMG 1119/1121 9999 BKN030 PROB30 TEMPO 1121/1200 8000 -SHRA SCT020 FEW040CB BECMG 1201/1203 18010KT 9999 NSW SCT020 =

Estación SAN JUAN

11 - 17:00 TAF SANU 111700Z 1118/1218 18015KT 9999 FEW040 TX31/1120Z TN18/1210Z =

Estación SAN LUIS

11 - 17:00 TAF SAOU 111700Z 1118/1218 14015KT 9999 SCT030 FEW040TCU TX27/1119Z TN18/1209Z =

Estación SAN RAFAEL

11 - 17:00 TAF SAMR 111700Z 1118/1218 14010KT 9999 FEW040TCU TX30/1120Z TN16/1210Z BECMG 1120/1122 14015KT 9999 VCTS FEW040TCU FEW050CB =

Estación SANTA ROSA

11 - 17:00 TAF SAZR 111700Z 1118/1218 16015KT CAVOK TX31/1218Z TN16/1210Z BECMG 1123/1201 20010KT =

Estación SANTIAGO DEL ESTERO

11 - 17:00 TAF SANE 111700Z 1118/1218 02010KT CAVOK TX41/1118Z TN21/1210Z BECMG 1122/1200 16015G25KT BKN030 BKN100 TEMPO 1200/1204 6000 TSRA BKN030 FEW035CB BECMG 1208/1210 14005KT SCT030 =

Estación SAUCE VIEJO

11 - 17:00 TAF SAAV 111700Z 1118/1218 11015KT 5000 TSRA BKN020 FEW050CB TX30/1118Z TN21/1209Z BECMG 1201/1203 18005KT 8000 RA BKN010 BECMG 1205/1207 9999 BKN015 BECMG 1213/1215 09015KT =

Estación TERMAS DE RIO HONDO

11 - 17:00 TAF SANR 111700Z 1118/1218 23010KT CAVOK TX37/1118Z TN23/1209Z BECMG 1122/1200 16015KT BKN030 BKN100 TEMPO 1200/1204 6000 TSRA BKN030 FEW035CB BECMG 1208/1210 14005KT SCT030 =

Estación TRELEW

11 - 17:00 TAF SAVT 111700Z 1118/1218 25015KT 9999 FEW045 TX25/1118Z TN13/1210Z BECMG 1120/1122 RA SCT030TCU SCT090 BECMG 1200/1202 VRB06KT CAVOK =

Estación TUCUMAN

11 - 17:00 TAF SANT 111700Z 1118/1218 16010KT CAVOK TX34/1218Z TN22/1208Z BECMG 1121/1123 SCT030 FEW040TCU TEMPO 1123/1203 5000 TSRA BKN020 FEW040CB BECMG 1204/1206 SCT030 =

Estación USHUAIA

11 - 17:00 TAF SAWH 111700Z 1118/1218 23015G30KT 9999 BKN045 OVC100 TX13/1120Z TN08/1207Z BECMG 1121/1122 VRB05KT NSW SCT030 BKN100 BECMG 1124/1202 32010KT BECMG 1203/1205 CAVOK BECMG 1212/1214 33020G35KT =

Estación VIEDMA

11 - 17:00 TAF SAVV 111700Z 1118/1218 22010G20KT 9999 FEW030TCU BKN200 TX30/1118Z TN12/1210Z BECMG 1119/1121 14010KT CAVOK BECMG 1200/1202 VRB05KT =